createdAt,value
2023-01-13T00:00:22.460Z,2.80
2023-01-13T00:01:28.117Z,2.67
2023-01-13T00:02:30.516Z,1.95
2023-01-13T00:03:34.200Z,2.00
2023-01-13T00:04:36.670Z,2.20
2023-01-13T00:05:40.105Z,2.40
2023-01-13T00:06:42.486Z,2.60
2023-01-13T00:07:46.568Z,2.07
2023-01-13T00:08:51.134Z,2.55
2023-01-13T00:09:54.876Z,2.45
2023-01-13T00:10:57.337Z,2.45
2023-01-13T00:12:01.056Z,2.60
2023-01-13T00:13:05.290Z,2.40
2023-01-13T00:14:09.062Z,2.20
2023-01-13T00:15:13.484Z,2.38
2023-01-13T00:16:19.220Z,2.33
2023-01-13T00:17:22.998Z,2.17
2023-01-13T00:18:27.066Z,2.67
2023-01-13T00:19:30.122Z,2.13
2023-01-13T00:20:33.895Z,2.10
2023-01-13T00:21:37.342Z,2.13
2023-01-13T00:22:41.413Z,1.88
2023-01-13T00:23:44.501Z,1.85
2023-01-13T00:24:49.349Z,2.13
2023-01-13T00:25:52.270Z,1.73
2023-01-13T00:26:55.851Z,2.13
2023-01-13T00:27:58.165Z,1.30
2023-01-13T00:29:01.969Z,1.80
2023-01-13T00:30:05.979Z,1.85
2023-01-13T00:31:10.908Z,2.13
2023-01-13T00:32:13.559Z,1.48
2023-01-13T00:33:17.163Z,1.70
2023-01-13T00:34:19.843Z,2.38
2023-01-13T00:35:23.185Z,1.38
2023-01-13T00:36:26.179Z,1.63
2023-01-13T00:37:29.483Z,1.38
2023-01-13T00:38:33.465Z,1.42
2023-01-13T00:39:36.865Z,1.80
2023-01-13T00:40:40.748Z,1.77
2023-01-13T00:42:01.650Z,1.65
2023-01-13T00:43:22.616Z,1.48
2023-01-13T00:44:26.268Z,1.50
2023-01-13T00:45:28.958Z,2.85
2023-01-13T00:46:32.317Z,1.60
2023-01-13T00:47:34.828Z,1.85
2023-01-13T00:48:38.392Z,2.47
2023-01-13T00:49:40.663Z,2.33
2023-01-13T00:50:44.196Z,2.43
2023-01-13T00:51:46.712Z,2.67
2023-01-13T00:52:50.440Z,2.40
2023-01-13T00:53:52.770Z,2.67
2023-01-13T00:54:56.112Z,2.28
2023-01-13T00:56:04.293Z,3.00
2023-01-13T00:57:07.823Z,2.80
2023-01-13T00:58:10.037Z,2.25
2023-01-13T00:59:14.775Z,2.50
2023-01-13T01:00:17.846Z,2.80
2023-01-13T01:01:23.215Z,2.30
2023-01-13T01:02:26.003Z,2.83
2023-01-13T01:03:30.029Z,2.70
2023-01-13T01:04:32.863Z,3.25
2023-01-13T01:05:36.295Z,3.40
2023-01-13T01:06:38.781Z,3.13
2023-01-13T01:07:42.014Z,2.67
2023-01-13T01:08:44.691Z,3.97
2023-01-13T01:09:48.521Z,3.08
2023-01-13T01:10:50.849Z,3.50
2023-01-13T01:11:55.613Z,3.43
2023-01-13T01:12:58.473Z,3.17
2023-01-13T01:14:04.000Z,3.83
2023-01-13T01:15:10.051Z,3.67
2023-01-13T01:16:15.772Z,3.70
2023-01-13T01:17:18.329Z,3.15
2023-01-13T01:18:21.712Z,2.80
2023-01-13T01:19:24.732Z,3.20
2023-01-13T01:20:28.023Z,3.60
2023-01-13T01:21:30.488Z,2.85
2023-01-13T01:22:34.066Z,3.27
2023-01-13T01:23:37.265Z,3.30
2023-01-13T01:24:40.705Z,3.30
2023-01-13T01:25:43.372Z,3.42
2023-01-13T01:26:47.708Z,2.90
2023-01-13T01:27:51.394Z,3.60
2023-01-13T01:28:55.583Z,3.80
2023-01-13T01:29:57.965Z,3.83
2023-01-13T01:31:02.170Z,3.08
2023-01-13T01:32:04.620Z,3.13
2023-01-13T01:33:08.251Z,3.10
2023-01-13T01:34:10.928Z,2.75
2023-01-13T01:35:14.191Z,2.88
2023-01-13T01:36:18.151Z,2.83
2023-01-13T01:37:21.560Z,3.38
2023-01-13T01:38:24.133Z,3.00
2023-01-13T01:39:27.684Z,2.97
2023-01-13T01:40:30.189Z,3.33
2023-01-13T01:41:35.620Z,3.03
2023-01-13T01:42:56.511Z,2.78
2023-01-13T01:44:06.768Z,2.90
2023-01-13T01:45:17.998Z,2.63
2023-01-13T01:46:21.455Z,2.80
2023-01-13T01:47:25.180Z,2.45
2023-01-13T01:48:31.475Z,2.75
2023-01-13T01:49:37.387Z,3.08
2023-01-13T01:50:41.482Z,2.80
2023-01-13T01:51:49.890Z,2.67
2023-01-13T01:52:58.025Z,3.00
2023-01-13T01:54:03.367Z,2.85
2023-01-13T01:55:10.522Z,2.60
2023-01-13T01:56:13.179Z,2.38
2023-01-13T01:57:21.172Z,2.60
2023-01-13T01:58:29.255Z,2.35
2023-01-13T01:59:37.545Z,2.15
2023-01-13T02:00:40.003Z,1.98
2023-01-13T02:01:44.534Z,2.33
2023-01-13T02:02:50.009Z,2.63
2023-01-13T02:03:59.761Z,2.30
2023-01-13T02:05:02.877Z,2.10
2023-01-13T02:06:07.735Z,3.10
2023-01-13T02:07:10.311Z,2.40
2023-01-13T02:08:15.390Z,2.58
2023-01-13T02:09:17.893Z,2.58
2023-01-13T02:10:23.498Z,2.55
2023-01-13T02:11:49.827Z,2.35
2023-01-13T02:12:55.353Z,2.42
2023-01-13T02:13:57.869Z,2.70
2023-01-13T02:15:07.300Z,2.70
2023-01-13T02:16:19.301Z,2.40
2023-01-13T02:17:37.081Z,3.17
2023-01-13T02:18:55.037Z,3.35
2023-01-13T02:20:31.898Z,2.67
2023-01-13T02:22:15.896Z,2.75
2023-01-13T02:24:16.781Z,2.95
2023-01-13T02:25:49.001Z,2.83
2023-01-13T02:27:27.703Z,3.03
2023-01-13T02:29:09.385Z,2.85
2023-01-13T02:30:41.867Z,3.35
2023-01-13T02:31:51.301Z,3.47
2023-01-13T02:33:09.320Z,3.83
2023-01-13T02:34:21.243Z,4.03
2023-01-13T02:35:30.337Z,3.95
2023-01-13T02:36:40.990Z,4.70
2023-01-13T02:37:44.997Z,4.40
2023-01-13T02:38:53.874Z,4.75
2023-01-13T02:39:59.923Z,4.90
2023-01-13T02:41:22.478Z,4.75
2023-01-13T02:42:50.219Z,4.97
2023-01-13T02:44:10.469Z,5.20
2023-01-13T02:45:19.946Z,3.93
2023-01-13T02:46:26.664Z,3.65
2023-01-13T02:47:32.997Z,3.97
2023-01-13T02:48:38.540Z,3.33
2023-01-13T02:49:45.281Z,3.88
2023-01-13T02:50:53.057Z,3.60
2023-01-13T02:52:03.710Z,3.30
2023-01-13T02:53:13.195Z,3.72
2023-01-13T02:54:21.027Z,3.70
2023-01-13T02:55:31.299Z,3.90
2023-01-13T02:56:44.862Z,4.23
2023-01-13T02:57:49.867Z,4.03
2023-01-13T02:58:56.026Z,3.78
2023-01-13T03:00:00.396Z,3.78
2023-01-13T03:01:04.346Z,3.80
2023-01-13T03:02:10.535Z,4.10
2023-01-13T03:03:13.772Z,4.20
2023-01-13T03:04:47.807Z,4.03
2023-01-13T03:05:55.769Z,3.58
2023-01-13T03:07:07.518Z,3.85
2023-01-13T03:08:33.644Z,4.30
2023-01-13T03:09:44.637Z,3.88
2023-01-13T03:11:04.250Z,4.18
2023-01-13T03:12:15.833Z,3.97
2023-01-13T03:13:31.739Z,3.70
2023-01-13T03:14:42.051Z,3.67
2023-01-13T03:15:53.845Z,4.40
2023-01-13T03:17:15.831Z,3.88
2023-01-13T03:18:31.104Z,3.88
2023-01-13T03:19:44.362Z,3.63
2023-01-13T03:20:54.955Z,3.53
2023-01-13T03:22:05.528Z,3.50
2023-01-13T03:23:14.228Z,3.83
2023-01-13T03:24:22.125Z,4.25
2023-01-13T03:25:29.131Z,3.70
2023-01-13T03:26:39.070Z,3.65
2023-01-13T03:27:50.953Z,3.90
2023-01-13T03:28:59.377Z,3.78
2023-01-13T03:30:08.470Z,3.60
2023-01-13T03:31:14.228Z,3.78
2023-01-13T03:32:27.097Z,5.07
2023-01-13T03:33:34.642Z,3.90
2023-01-13T03:34:46.054Z,3.85
2023-01-13T03:35:52.392Z,4.30
2023-01-13T03:36:58.036Z,4.20
2023-01-13T03:38:05.864Z,4.38
2023-01-13T03:39:13.629Z,5.18
2023-01-13T03:40:19.091Z,4.50
2023-01-13T03:41:28.109Z,4.60
2023-01-13T03:42:33.815Z,4.03
2023-01-13T03:43:58.892Z,4.67
2023-01-13T03:45:06.805Z,3.75
2023-01-13T03:46:16.796Z,4.50
2023-01-13T03:47:27.849Z,4.57
2023-01-13T03:48:36.150Z,4.50
2023-01-13T03:49:47.008Z,4.00
2023-01-13T03:50:52.358Z,4.13
2023-01-13T03:51:59.824Z,4.78
2023-01-13T03:53:07.006Z,4.10
2023-01-13T03:54:15.651Z,4.10
2023-01-13T03:55:21.352Z,4.47
2023-01-13T03:56:30.954Z,4.15
2023-01-13T03:57:39.995Z,3.80
2023-01-13T03:58:47.387Z,4.07
2023-01-13T03:59:54.662Z,4.13
2023-01-13T04:01:02.769Z,3.53
2023-01-13T04:02:10.997Z,3.95
2023-01-13T04:03:25.401Z,3.95
2023-01-13T04:04:33.555Z,3.60
2023-01-13T04:05:43.229Z,4.18
2023-01-13T04:06:51.737Z,4.20
2023-01-13T04:08:03.775Z,3.58
2023-01-13T04:09:15.305Z,3.60
2023-01-13T04:10:24.076Z,4.13
2023-01-13T04:11:32.851Z,4.53
2023-01-13T04:12:58.008Z,3.80
2023-01-13T04:14:04.897Z,4.20
2023-01-13T04:15:08.547Z,3.70
2023-01-13T04:16:13.542Z,3.83
2023-01-13T04:17:16.693Z,4.15
2023-01-13T04:18:25.331Z,4.37
2023-01-13T04:19:28.360Z,4.22
2023-01-13T04:20:32.274Z,4.05
2023-01-13T04:21:36.069Z,3.95
2023-01-13T04:22:39.686Z,3.97
2023-01-13T04:23:42.335Z,4.18
2023-01-13T04:24:46.074Z,4.18
2023-01-13T04:25:49.619Z,4.68
2023-01-13T04:26:53.210Z,4.57
2023-01-13T04:27:55.979Z,4.40
2023-01-13T04:28:59.370Z,4.47
2023-01-13T04:30:02.748Z,5.25
2023-01-13T04:31:06.315Z,4.63
2023-01-13T04:32:08.956Z,4.35
2023-01-13T04:33:12.905Z,4.30
2023-01-13T04:34:17.111Z,4.72
2023-01-13T04:35:21.112Z,4.47
2023-01-13T04:36:27.757Z,5.18
2023-01-13T04:37:30.305Z,4.78
2023-01-13T04:38:34.055Z,4.05
2023-01-13T04:39:37.318Z,5.10
2023-01-13T04:40:41.334Z,4.80
2023-01-13T04:41:59.196Z,5.85
2023-01-13T04:43:03.054Z,5.60
2023-01-13T04:44:05.906Z,5.05
2023-01-13T04:45:11.405Z,5.10
2023-01-13T04:46:14.797Z,5.28
2023-01-13T04:47:18.487Z,5.68
2023-01-13T04:48:20.994Z,5.63
2023-01-13T04:49:25.976Z,5.75
2023-01-13T04:50:28.396Z,5.53
2023-01-13T04:51:31.833Z,5.53
2023-01-13T04:52:34.616Z,5.80
2023-01-13T04:53:38.132Z,5.80
2023-01-13T04:54:40.386Z,6.07
2023-01-13T04:55:44.545Z,6.40
2023-01-13T04:56:46.959Z,6.38
2023-01-13T04:57:50.611Z,5.65
2023-01-13T04:58:53.079Z,6.15
2023-01-13T04:59:56.358Z,5.38
2023-01-13T05:00:59.624Z,5.67
2023-01-13T05:02:02.334Z,5.72
2023-01-13T05:03:05.892Z,6.10
2023-01-13T05:04:11.799Z,5.18
2023-01-13T05:05:17.054Z,7.00
2023-01-13T05:06:19.650Z,6.00
2023-01-13T05:07:22.975Z,6.47
2023-01-13T05:08:25.336Z,5.95
2023-01-13T05:09:28.777Z,6.53
2023-01-13T05:10:31.274Z,5.68
2023-01-13T05:11:52.344Z,5.70
2023-01-13T05:13:13.340Z,5.63
2023-01-13T05:14:33.963Z,5.95
2023-01-13T05:15:54.911Z,4.65
2023-01-13T05:17:01.634Z,5.32
2023-01-13T05:18:04.902Z,5.32
2023-01-13T05:19:08.304Z,6.47
2023-01-13T05:20:12.062Z,6.00
2023-01-13T05:21:34.635Z,5.82
2023-01-13T05:22:55.351Z,5.40
2023-01-13T05:24:16.481Z,5.53
2023-01-13T05:25:22.967Z,5.03
2023-01-13T05:26:25.494Z,5.03
2023-01-13T05:27:29.554Z,5.20
2023-01-13T05:28:33.798Z,5.32
2023-01-13T05:29:36.059Z,5.00
2023-01-13T05:30:42.572Z,5.05
2023-01-13T05:31:45.100Z,4.88
2023-01-13T05:32:48.817Z,4.35
2023-01-13T05:33:51.266Z,4.80
2023-01-13T05:34:56.014Z,4.80
2023-01-13T05:36:03.101Z,4.20
2023-01-13T05:37:11.109Z,4.50
2023-01-13T05:38:15.505Z,4.70
2023-01-13T05:39:18.363Z,4.18
2023-01-13T05:40:39.342Z,4.68
2023-01-13T05:42:00.323Z,3.92
2023-01-13T05:43:21.713Z,4.57
2023-01-13T05:44:24.003Z,4.63
2023-01-13T05:45:27.345Z,3.80
2023-01-13T05:46:31.229Z,4.13
2023-01-13T05:47:33.895Z,3.53
2023-01-13T05:48:39.506Z,3.92
2023-01-13T05:49:42.331Z,4.60
2023-01-13T05:50:46.357Z,3.80
2023-01-13T05:51:48.929Z,4.05
2023-01-13T05:52:53.803Z,3.83
2023-01-13T05:53:57.118Z,3.80
2023-01-13T05:54:59.386Z,3.97
2023-01-13T05:56:05.518Z,3.53
2023-01-13T05:57:07.981Z,3.87
2023-01-13T05:58:12.266Z,3.70
2023-01-13T05:59:14.580Z,3.50
2023-01-13T06:00:19.358Z,3.60
2023-01-13T06:01:22.769Z,3.50
2023-01-13T06:02:26.658Z,3.67
2023-01-13T06:03:30.177Z,3.63
2023-01-13T06:04:32.712Z,3.55
2023-01-13T06:05:36.795Z,3.50
2023-01-13T06:06:40.262Z,3.42
2023-01-13T06:07:42.536Z,3.90
2023-01-13T06:08:47.533Z,3.28
2023-01-13T06:09:49.868Z,3.53
2023-01-13T06:10:53.255Z,3.70
2023-01-13T06:11:55.870Z,3.50
2023-01-13T06:12:59.427Z,2.88
2023-01-13T06:14:01.877Z,2.97
2023-01-13T06:15:05.728Z,3.55
2023-01-13T06:16:09.717Z,3.15
2023-01-13T06:17:15.014Z,3.33
2023-01-13T06:18:18.392Z,3.37
2023-01-13T06:19:20.753Z,3.50
2023-01-13T06:20:25.303Z,3.55
2023-01-13T06:21:27.762Z,3.35
2023-01-13T06:22:33.059Z,3.30
2023-01-13T06:23:38.716Z,2.75
2023-01-13T06:24:45.924Z,2.92
2023-01-13T06:25:54.993Z,3.25
2023-01-13T06:26:57.560Z,3.17
2023-01-13T06:28:01.904Z,3.47
2023-01-13T06:29:04.587Z,3.17
2023-01-13T06:30:09.514Z,2.92
2023-01-13T06:31:13.481Z,3.20
2023-01-13T06:32:19.283Z,3.65
2023-01-13T06:33:27.085Z,3.25
2023-01-13T06:34:30.011Z,3.35
2023-01-13T06:35:37.032Z,2.88
2023-01-13T06:36:44.107Z,2.83
2023-01-13T06:37:51.601Z,3.10
2023-01-13T06:38:57.724Z,3.65
2023-01-13T06:40:04.196Z,2.70
2023-01-13T06:41:08.180Z,3.22
2023-01-13T06:42:28.748Z,3.20
2023-01-13T06:43:32.152Z,3.10
2023-01-13T06:44:36.245Z,3.00
2023-01-13T06:45:39.531Z,3.03
2023-01-13T06:46:42.882Z,3.20
2023-01-13T06:47:45.381Z,3.05
2023-01-13T06:48:48.915Z,2.60
2023-01-13T06:49:51.234Z,2.85
2023-01-13T06:50:54.904Z,2.87
2023-01-13T06:51:57.368Z,3.20
2023-01-13T06:53:00.916Z,3.17
2023-01-13T06:54:03.871Z,3.50
2023-01-13T06:55:09.339Z,3.20
2023-01-13T06:56:13.027Z,2.80
2023-01-13T06:57:15.237Z,2.80
2023-01-13T06:58:18.569Z,3.42
2023-01-13T06:59:21.012Z,2.80
2023-01-13T07:00:25.864Z,3.30
2023-01-13T07:01:29.429Z,3.10
2023-01-13T07:02:31.621Z,3.10
2023-01-13T07:03:34.862Z,3.28
2023-01-13T07:04:37.273Z,2.85
2023-01-13T07:05:42.432Z,2.90
2023-01-13T07:06:44.801Z,2.72
2023-01-13T07:07:48.113Z,3.00
2023-01-13T07:08:50.489Z,2.20
2023-01-13T07:09:53.982Z,3.55
2023-01-13T07:10:59.465Z,3.38
2023-01-13T07:12:01.816Z,2.63
2023-01-13T07:13:23.692Z,2.85
2023-01-13T07:14:44.838Z,2.70
2023-01-13T07:15:58.290Z,2.28
2023-01-13T07:17:00.543Z,2.15
2023-01-13T07:18:04.309Z,2.13
2023-01-13T07:19:06.543Z,2.40
2023-01-13T07:20:10.863Z,2.58
2023-01-13T07:21:18.809Z,2.50
2023-01-13T07:22:22.117Z,2.22
2023-01-13T07:23:24.935Z,2.50
2023-01-13T07:24:28.191Z,2.55
2023-01-13T07:25:32.524Z,3.03
2023-01-13T07:26:38.204Z,2.53
2023-01-13T07:27:41.919Z,2.67
2023-01-13T07:28:44.746Z,2.22
2023-01-13T07:29:48.149Z,2.72
2023-01-13T07:30:51.471Z,2.65
2023-01-13T07:31:55.009Z,2.78
2023-01-13T07:32:59.298Z,2.90
2023-01-13T07:34:01.814Z,2.63
2023-01-13T07:35:06.121Z,3.00
2023-01-13T07:36:09.072Z,2.53
2023-01-13T07:37:12.884Z,2.80
2023-01-13T07:38:15.725Z,3.33
2023-01-13T07:39:19.000Z,2.60
2023-01-13T07:40:21.313Z,2.55
2023-01-13T07:41:42.829Z,3.03
2023-01-13T07:43:05.464Z,2.80
2023-01-13T07:44:10.914Z,2.50
2023-01-13T07:45:13.167Z,2.87
2023-01-13T07:46:16.677Z,2.45
2023-01-13T07:47:21.875Z,2.70
2023-01-13T07:48:25.029Z,2.70
2023-01-13T07:49:29.374Z,2.63
2023-01-13T07:50:32.737Z,2.65
2023-01-13T07:51:37.278Z,3.53
2023-01-13T07:52:40.609Z,2.60
2023-01-13T07:53:43.120Z,2.75
2023-01-13T07:54:46.684Z,2.90
2023-01-13T07:55:49.895Z,2.80
2023-01-13T07:56:52.049Z,2.63
2023-01-13T07:57:57.110Z,2.58
2023-01-13T07:59:00.572Z,3.15
2023-01-13T08:00:04.905Z,2.47
2023-01-13T08:01:12.200Z,3.08
2023-01-13T08:02:16.038Z,2.85
2023-01-13T08:03:19.663Z,2.80
2023-01-13T08:04:23.007Z,2.67
2023-01-13T08:05:27.228Z,2.97
2023-01-13T08:06:31.197Z,2.27
2023-01-13T08:07:34.125Z,2.78
2023-01-13T08:08:38.407Z,2.30
2023-01-13T08:09:40.760Z,2.28
2023-01-13T08:10:45.162Z,2.53
2023-01-13T08:12:10.400Z,2.83
2023-01-13T08:13:20.118Z,3.25
2023-01-13T08:14:23.605Z,2.30
2023-01-13T08:15:25.939Z,2.58
2023-01-13T08:16:29.276Z,2.80
2023-01-13T08:17:31.864Z,2.40
2023-01-13T08:18:36.860Z,2.70
2023-01-13T08:19:39.114Z,2.80
2023-01-13T08:20:42.755Z,2.50
2023-01-13T08:21:46.593Z,2.88
2023-01-13T08:22:48.994Z,2.80
2023-01-13T08:23:52.723Z,2.55
2023-01-13T08:24:55.051Z,3.30
2023-01-13T08:26:01.515Z,3.00
2023-01-13T08:27:04.224Z,3.05
2023-01-13T08:28:08.076Z,3.37
2023-01-13T08:29:14.918Z,3.67
2023-01-13T08:30:18.570Z,4.15
2023-01-13T08:31:22.467Z,3.38
2023-01-13T08:32:24.805Z,3.50
2023-01-13T08:33:28.989Z,3.35
2023-01-13T08:34:32.354Z,3.67
2023-01-13T08:35:37.307Z,3.85
2023-01-13T08:36:41.304Z,4.00
2023-01-13T08:37:43.988Z,4.20
2023-01-13T08:38:47.575Z,4.63
2023-01-13T08:39:50.340Z,4.65
2023-01-13T08:40:53.884Z,4.63
2023-01-13T08:41:56.112Z,4.72
2023-01-13T08:43:00.015Z,4.40
2023-01-13T08:44:03.348Z,4.10
2023-01-13T08:45:12.168Z,4.40
2023-01-13T08:46:15.461Z,4.63
2023-01-13T08:47:17.659Z,4.47
2023-01-13T08:48:20.937Z,4.03
2023-01-13T08:49:24.584Z,3.77
2023-01-13T08:50:27.982Z,4.15
2023-01-13T08:51:31.273Z,4.40
2023-01-13T08:52:34.635Z,4.10
2023-01-13T08:53:38.208Z,4.25
2023-01-13T08:54:41.551Z,5.45
2023-01-13T08:55:45.148Z,4.50
2023-01-13T08:56:47.833Z,3.88
2023-01-13T08:57:51.131Z,4.57
2023-01-13T08:58:53.466Z,5.03
2023-01-13T08:59:56.995Z,4.83
2023-01-13T09:01:06.246Z,5.47
2023-01-13T09:02:14.939Z,4.57
2023-01-13T09:03:17.704Z,4.90
2023-01-13T09:04:23.704Z,4.75
2023-01-13T09:05:27.516Z,4.25
2023-01-13T09:06:29.922Z,5.40
2023-01-13T09:07:33.373Z,5.93
2023-01-13T09:08:35.925Z,5.05
2023-01-13T09:09:39.690Z,5.75
2023-01-13T09:10:43.112Z,5.33
2023-01-13T09:12:07.411Z,5.55
2023-01-13T09:13:13.756Z,4.88
2023-01-13T09:14:19.087Z,4.07
2023-01-13T09:15:22.722Z,4.38
2023-01-13T09:16:26.719Z,3.95
2023-01-13T09:17:30.171Z,3.40
2023-01-13T09:18:33.576Z,3.50
2023-01-13T09:19:37.040Z,3.42
2023-01-13T09:20:40.472Z,3.45
2023-01-13T09:21:42.757Z,4.00
2023-01-13T09:22:46.073Z,3.90
2023-01-13T09:23:48.347Z,4.32
2023-01-13T09:24:51.627Z,3.35
2023-01-13T09:25:54.895Z,3.17
2023-01-13T09:26:57.237Z,3.72
2023-01-13T09:28:00.518Z,4.07
2023-01-13T09:29:02.906Z,3.80
2023-01-13T09:30:07.587Z,4.97
2023-01-13T09:31:10.852Z,4.45
2023-01-13T09:32:16.849Z,4.03
2023-01-13T09:33:37.722Z,3.70
2023-01-13T09:34:59.546Z,4.40
2023-01-13T09:36:03.167Z,4.25
2023-01-13T09:37:07.006Z,4.18
2023-01-13T09:38:10.230Z,4.03
2023-01-13T09:39:12.401Z,4.43
2023-01-13T09:40:19.806Z,4.78
2023-01-13T09:41:43.610Z,4.35
2023-01-13T09:43:10.661Z,4.30
2023-01-13T09:44:19.909Z,3.80
2023-01-13T09:45:26.577Z,4.43
2023-01-13T09:46:44.250Z,4.90
2023-01-13T09:47:57.759Z,5.93
2023-01-13T09:49:03.734Z,4.80
2023-01-13T09:50:18.410Z,4.60
2023-01-13T09:51:29.758Z,4.82
2023-01-13T09:52:32.074Z,4.70
2023-01-13T09:53:39.596Z,4.40
2023-01-13T09:54:44.074Z,4.53
2023-01-13T09:55:47.340Z,4.30
2023-01-13T09:56:50.719Z,5.15
2023-01-13T09:57:54.361Z,4.75
2023-01-13T09:58:57.437Z,4.60
2023-01-13T10:00:01.138Z,4.57
2023-01-13T10:01:17.358Z,4.30
2023-01-13T10:02:47.757Z,4.63
2023-01-13T10:03:52.627Z,4.28
2023-01-13T10:05:14.979Z,4.45
2023-01-13T10:06:22.348Z,3.97
2023-01-13T10:07:25.610Z,4.53
2023-01-13T10:08:32.770Z,4.72
2023-01-13T10:09:47.585Z,4.70
2023-01-13T10:10:53.891Z,4.40
2023-01-13T10:12:18.375Z,4.10
2023-01-13T10:13:23.139Z,3.90
2023-01-13T10:14:33.308Z,3.92
2023-01-13T10:15:36.144Z,3.95
2023-01-13T10:16:46.038Z,3.65
2023-01-13T10:17:56.209Z,3.50
2023-01-13T10:19:07.885Z,4.60
2023-01-13T10:20:22.467Z,3.80
2023-01-13T10:21:56.732Z,4.15
2023-01-13T10:23:13.118Z,4.30
2023-01-13T10:24:25.408Z,4.43
2023-01-13T10:25:43.605Z,4.30
2023-01-13T10:26:55.570Z,4.55
2023-01-13T10:28:09.299Z,4.50
2023-01-13T10:29:24.960Z,4.55
2023-01-13T10:30:34.112Z,4.03
2023-01-13T10:31:37.769Z,4.37
2023-01-13T10:32:45.557Z,4.18
2023-01-13T10:33:49.433Z,3.83
2023-01-13T10:34:57.206Z,3.70
2023-01-13T10:36:02.583Z,2.92
2023-01-13T10:37:07.446Z,3.08
2023-01-13T10:38:16.549Z,2.85
2023-01-13T10:39:21.354Z,2.78
2023-01-13T10:40:25.767Z,2.70
2023-01-13T10:41:29.469Z,2.50
2023-01-13T10:42:31.862Z,2.50
2023-01-13T10:43:35.179Z,2.80
2023-01-13T10:44:48.317Z,3.30
2023-01-13T10:45:59.814Z,3.25
2023-01-13T10:47:03.212Z,3.70
2023-01-13T10:48:13.552Z,3.10
2023-01-13T10:49:32.831Z,2.92
2023-01-13T10:50:38.859Z,2.33
2023-01-13T10:51:46.132Z,2.08
2023-01-13T10:53:01.390Z,1.77
2023-01-13T10:54:20.493Z,2.00
2023-01-13T10:55:28.824Z,2.08
2023-01-13T10:56:34.742Z,2.28
2023-01-13T10:57:37.190Z,2.00
2023-01-13T10:58:40.746Z,1.98
2023-01-13T10:59:44.274Z,1.80
2023-01-13T11:01:00.666Z,2.10
2023-01-13T11:02:19.883Z,2.00
2023-01-13T11:03:35.549Z,2.15
2023-01-13T11:04:40.067Z,2.10
2023-01-13T11:07:28.244Z,1.98
2023-01-13T11:08:43.980Z,2.53
2023-01-13T11:09:46.479Z,2.00
2023-01-13T11:11:26.176Z,2.10
2023-01-13T11:12:32.511Z,2.20
2023-01-13T11:15:39.687Z,1.88
2023-01-13T11:16:53.124Z,2.00
2023-01-13T11:18:02.885Z,2.05
2023-01-13T11:19:12.907Z,2.30
2023-01-13T11:20:22.149Z,1.80
2023-01-13T11:21:34.746Z,1.80
2023-01-13T11:22:43.348Z,1.92
2023-01-13T11:23:51.425Z,1.90
2023-01-13T11:24:58.744Z,1.30
2023-01-13T11:26:06.702Z,2.28
2023-01-13T11:27:16.152Z,1.80
2023-01-13T11:28:36.696Z,1.95
2023-01-13T11:29:45.508Z,2.17
2023-01-13T11:30:56.869Z,2.23
2023-01-13T11:32:09.696Z,2.08
2023-01-13T11:33:31.817Z,2.10
2023-01-13T11:34:38.154Z,2.10
2023-01-13T11:35:45.404Z,2.33
2023-01-13T11:36:52.587Z,2.00
2023-01-13T11:38:02.082Z,2.10
2023-01-13T11:39:19.375Z,2.25
2023-01-13T11:40:29.032Z,2.38
2023-01-13T11:41:42.176Z,2.00
2023-01-13T11:42:50.008Z,2.30
2023-01-13T11:43:57.687Z,1.95
2023-01-13T11:45:08.539Z,1.88
2023-01-13T11:46:11.366Z,2.35
2023-01-13T11:47:15.324Z,2.20
2023-01-13T11:48:23.059Z,2.22
2023-01-13T11:49:28.674Z,1.73
2023-01-13T11:50:36.389Z,2.10
2023-01-13T11:51:43.710Z,2.05
2023-01-13T11:53:11.374Z,2.30
2023-01-13T11:54:36.477Z,2.27
2023-01-13T11:55:48.260Z,1.77
2023-01-13T11:57:31.061Z,1.70
2023-01-13T11:59:05.021Z,2.20
2023-01-13T12:00:27.094Z,2.13
2023-01-13T12:01:52.485Z,1.80
2023-01-13T12:03:08.306Z,1.88
2023-01-13T12:04:26.214Z,1.80
2023-01-13T12:05:37.248Z,1.65
2023-01-13T12:06:43.537Z,1.90
2023-01-13T12:07:56.544Z,2.10
2023-01-13T12:09:31.587Z,1.90
2023-01-13T12:10:45.951Z,2.20
2023-01-13T12:12:23.022Z,2.03
2023-01-13T12:13:39.073Z,1.80
2023-01-13T12:14:55.465Z,1.90
2023-01-13T12:16:24.068Z,2.10
2023-01-13T12:17:33.391Z,1.85
2023-01-13T12:18:56.777Z,1.95
2023-01-13T12:20:18.636Z,1.60
2023-01-13T12:21:22.733Z,1.90
2023-01-13T12:22:29.216Z,2.25
2023-01-13T12:23:35.766Z,2.10
2023-01-13T12:24:45.777Z,2.10
2023-01-13T12:25:53.075Z,2.33
2023-01-13T12:26:59.838Z,1.85
2023-01-13T12:28:08.327Z,1.80
2023-01-13T12:29:15.963Z,1.85
2023-01-13T12:30:27.457Z,2.50
2023-01-13T12:31:33.059Z,2.40
2023-01-13T12:32:39.601Z,2.57
2023-01-13T16:59:41.864Z,5.00
2023-01-13T17:00:49.886Z,5.40
2023-01-13T17:01:55.160Z,4.43
2023-01-13T17:02:59.006Z,5.00
2023-01-13T17:04:02.855Z,4.63
2023-01-13T17:05:05.999Z,5.50
2023-01-13T17:06:12.716Z,6.32
2023-01-13T17:07:19.108Z,6.38
2023-01-13T17:08:22.851Z,6.65
2023-01-13T17:09:29.257Z,6.47
2023-01-13T17:10:38.831Z,7.10
2023-01-13T17:11:43.828Z,7.37
2023-01-13T17:12:47.010Z,7.07
2023-01-13T17:13:51.822Z,6.93
2023-01-13T17:14:54.502Z,6.78
2023-01-13T17:15:59.218Z,6.68
2023-01-13T17:17:02.365Z,6.05
2023-01-13T17:18:04.683Z,7.18
2023-01-13T17:19:09.252Z,6.90
2023-01-13T17:20:14.017Z,7.28
2023-01-13T17:21:17.912Z,6.68
2023-01-13T17:22:22.160Z,7.40
2023-01-13T17:23:25.893Z,7.43
2023-01-13T17:24:31.135Z,7.40
2023-01-13T17:25:35.249Z,5.88
2023-01-13T17:26:49.433Z,6.10
2023-01-13T17:27:53.264Z,6.20
2023-01-13T17:28:55.621Z,5.57
2023-01-13T17:30:00.290Z,5.43
2023-01-13T17:31:05.204Z,5.40
2023-01-13T17:32:08.669Z,4.88
2023-01-13T17:33:11.275Z,5.77
2023-01-13T17:34:15.723Z,4.55
2023-01-13T17:35:22.986Z,5.13
2023-01-13T17:36:26.473Z,5.70
2023-01-13T17:37:30.240Z,5.93
2023-01-13T17:38:32.788Z,7.10
2023-01-13T17:39:36.088Z,11.63
2023-01-13T17:40:38.726Z,29.25
2023-01-13T17:41:42.236Z,20.65
2023-01-13T17:42:44.619Z,10.60
2023-01-13T17:43:48.598Z,6.00
2023-01-13T17:44:53.258Z,5.22
2023-01-13T17:45:57.561Z,4.97
2023-01-13T17:47:02.678Z,5.00
2023-01-13T17:48:06.240Z,4.20
2023-01-13T17:49:11.192Z,4.55
2023-01-13T17:50:14.695Z,4.70
2023-01-13T17:51:19.716Z,4.70
2023-01-13T17:52:23.163Z,4.70
2023-01-13T17:53:25.835Z,4.53
2023-01-13T17:54:29.042Z,4.10
2023-01-13T17:55:32.582Z,4.30
2023-01-13T17:56:35.874Z,4.55
2023-01-13T17:57:39.734Z,4.20
2023-01-13T17:58:45.535Z,4.80
2023-01-13T17:59:49.214Z,4.20
2023-01-13T18:00:51.811Z,4.00
2023-01-13T18:01:55.466Z,4.13
2023-01-13T18:03:01.648Z,4.68
2023-01-13T18:04:06.669Z,4.20
2023-01-13T18:05:12.723Z,3.97
2023-01-13T18:06:17.837Z,4.10
2023-01-13T18:07:21.822Z,4.35
2023-01-13T18:08:25.840Z,4.68
2023-01-13T18:09:29.384Z,4.70
2023-01-13T18:10:33.513Z,4.97
2023-01-13T18:11:38.153Z,4.70
2023-01-13T18:12:40.460Z,4.82
2023-01-13T18:13:44.155Z,5.03
2023-01-13T18:14:48.304Z,4.95
2023-01-13T18:15:59.233Z,5.23
2023-01-13T18:17:02.608Z,4.97
2023-01-13T18:18:07.716Z,5.40
2023-01-13T18:19:29.799Z,5.35
2023-01-13T18:20:50.643Z,5.25
2023-01-13T18:22:11.986Z,5.30
2023-01-13T18:23:35.967Z,4.65
2023-01-13T18:24:57.119Z,4.53
2023-01-13T18:26:18.043Z,5.72
2023-01-13T18:27:26.662Z,4.75
2023-01-13T18:28:31.189Z,4.30
2023-01-13T18:29:35.312Z,4.82
2023-01-13T18:30:37.725Z,4.68
2023-01-13T18:31:41.745Z,4.55
2023-01-13T18:32:45.057Z,5.15
2023-01-13T18:33:49.137Z,4.93
2023-01-13T18:35:04.741Z,5.38
2023-01-13T18:36:10.118Z,4.90
2023-01-13T18:37:14.705Z,5.00
2023-01-13T18:38:18.995Z,4.78
2023-01-13T18:39:21.429Z,5.50
2023-01-13T18:40:24.743Z,5.50
2023-01-13T18:41:46.080Z,5.40
2023-01-13T18:42:52.315Z,6.05
2023-01-13T18:43:55.959Z,5.82
2023-01-13T18:44:59.244Z,5.72
2023-01-13T18:46:02.635Z,5.47
2023-01-13T18:47:05.723Z,5.03
2023-01-13T18:48:09.586Z,5.38
2023-01-13T18:49:13.712Z,5.57
2023-01-13T18:50:18.921Z,5.60
2023-01-13T18:51:22.171Z,4.85
2023-01-13T18:52:26.537Z,4.85
2023-01-13T18:53:30.590Z,4.70
2023-01-13T18:54:33.868Z,4.97
2023-01-13T18:55:38.868Z,4.72
2023-01-13T18:56:42.235Z,5.32
2023-01-13T18:57:47.094Z,4.85
2023-01-13T18:58:52.020Z,4.88
2023-01-13T18:59:58.173Z,5.75
2023-01-13T19:01:06.486Z,5.80
2023-01-13T19:02:16.393Z,5.20
2023-01-13T19:03:29.863Z,5.70
2023-01-13T19:04:36.665Z,9.00
2023-01-13T19:05:40.347Z,16.35
2023-01-13T19:06:48.452Z,17.10
2023-01-13T19:07:52.095Z,15.77
2023-01-13T19:08:55.441Z,10.45
2023-01-13T19:10:00.595Z,9.88
2023-01-13T19:11:07.443Z,9.07
2023-01-13T19:12:13.069Z,9.17
2023-01-13T19:13:16.759Z,8.75
2023-01-13T19:14:35.848Z,9.98
2023-01-13T19:15:39.595Z,8.45
2023-01-13T19:16:44.710Z,8.00
2023-01-13T19:17:48.154Z,5.90
2023-01-13T19:18:51.557Z,5.68
2023-01-13T19:19:58.485Z,4.70
2023-01-13T19:21:05.231Z,5.03
2023-01-13T19:22:09.035Z,5.03
2023-01-13T19:23:12.755Z,4.83
2023-01-13T19:24:17.420Z,4.93